Time;durP1;ratioP1;P1;durP2;ratioP2;P2;SDS_P1;SDS_P2;PMS_P1;PMS_P2;Temp;Humidity;BMP_temperature;BMP_pressure;BME280_temperature;BME280_humidity;BME280_pressure;Samples;Min_cycle;Max_cycle;Signal;HPM_P1;HPM_P2
2022/03/02 00:01:23;;;;;;;19.83;11.77;;;5.50;99.90;;;;;;4921613;29;20199;-73
2022/03/02 00:03:51;;;;;;;17.27;11.13;;;5.50;99.90;;;;;;4916629;29;20172;-75
2022/03/02 00:06:17;;;;;;;20.73;11.27;;;5.40;99.90;;;;;;4916803;29;20203;-73
2022/03/02 00:08:43;;;;;;;17.63;11.17;;;5.40;99.90;;;;;;4921472;29;20199;-73
2022/03/02 00:11:09;;;;;;;18.97;11.87;;;5.40;99.90;;;;;;4923880;29;20184;-74
2022/03/02 00:13:35;;;;;;;16.93;10.33;;;5.40;99.90;;;;;;4916766;29;20200;-73
2022/03/02 00:16:00;;;;;;;18.93;11.63;;;5.40;99.90;;;;;;4920040;29;20200;-73
2022/03/02 00:18:26;;;;;;;16.57;10.40;;;5.40;99.90;;;;;;4918387;29;20192;-73
2022/03/02 00:20:52;;;;;;;19.30;10.97;;;5.40;99.90;;;;;;4919205;29;20453;-73
2022/03/02 00:23:18;;;;;;;17.33;11.23;;;5.40;99.90;;;;;;4921979;29;20731;-73
2022/03/02 00:25:44;;;;;;;16.70;10.80;;;5.40;99.90;;;;;;4919192;29;20172;-73
2022/03/02 00:28:09;;;;;;;17.00;11.03;;;5.40;99.90;;;;;;4920480;29;20188;-72
2022/03/02 00:30:35;;;;;;;15.33;10.20;;;5.40;99.90;;;;;;4920186;29;20561;-73
2022/03/02 00:33:01;;;;;;;16.50;10.70;;;5.40;99.90;;;;;;4921175;29;20196;-73
2022/03/02 00:35:26;;;;;;;20.50;10.97;;;5.40;99.90;;;;;;4920956;29;20188;-73
2022/03/02 00:37:52;;;;;;;18.13;11.40;;;5.40;99.90;;;;;;4916218;29;20224;-73
2022/03/02 00:40:18;;;;;;;20.20;11.17;;;5.30;99.90;;;;;;4913563;29;20223;-73
2022/03/02 00:42:44;;;;;;;19.20;11.20;;;5.30;99.90;;;;;;4912931;29;20711;-74
2022/03/02 00:45:11;;;;;;;17.20;11.13;;;5.30;99.90;;;;;;4916130;29;20192;-73
2022/03/02 00:47:38;;;;;;;18.37;10.93;;;5.30;99.90;;;;;;4918918;29;20208;-72
2022/03/02 00:50:04;;;;;;;17.67;11.07;;;5.30;99.90;;;;;;4919586;29;20287;-72
2022/03/02 00:52:31;;;;;;;19.07;11.20;;;5.30;99.90;;;;;;4917493;29;20185;-73
2022/03/02 00:54:56;;;;;;;20.37;11.87;;;5.30;99.90;;;;;;4918582;29;20661;-74
2022/03/02 00:57:22;;;;;;;17.50;11.33;;;5.30;99.90;;;;;;4918011;29;20227;-73
2022/03/02 00:59:48;;;;;;;17.60;11.53;;;5.30;99.90;;;;;;4916919;29;20198;-74
2022/03/02 01:02:14;;;;;;;22.17;12.20;;;5.30;99.90;;;;;;4920662;29;20238;-73
2022/03/02 01:04:40;;;;;;;18.30;11.33;;;5.30;99.90;;;;;;4921546;29;20184;-74
2022/03/02 01:07:05;;;;;;;21.50;11.57;;;5.20;99.90;;;;;;4920271;29;20758;-73
2022/03/02 01:09:31;;;;;;;20.20;12.00;;;5.20;99.90;;;;;;4920558;29;20199;-72
2022/03/02 01:11:57;;;;;;;18.37;12.17;;;5.20;99.90;;;;;;4915912;29;20193;-73
2022/03/02 01:14:23;;;;;;;20.73;13.33;;;5.20;99.90;;;;;;4922746;29;20195;-73
2022/03/02 01:16:51;;;;;;;20.87;12.97;;;5.20;99.90;;;;;;4918292;29;20684;-73
2022/03/02 01:19:17;;;;;;;19.67;12.23;;;5.20;99.90;;;;;;4922942;29;20651;-73
2022/03/02 01:21:42;;;;;;;19.40;12.43;;;5.10;99.90;;;;;;4924302;29;20191;-72
2022/03/02 01:24:08;;;;;;;18.07;12.07;;;5.10;99.90;;;;;;4919933;29;20196;-73
2022/03/02 01:26:36;;;;;;;19.73;12.57;;;5.10;99.90;;;;;;4916696;29;20204;-72
2022/03/02 01:29:03;;;;;;;18.90;12.43;;;5.10;99.90;;;;;;4920667;29;20202;-74
2022/03/02 01:31:29;;;;;;;21.40;12.07;;;5.10;99.90;;;;;;4917613;29;20186;-72
2022/03/02 01:33:55;;;;;;;21.17;12.17;;;5.10;99.90;;;;;;4919346;29;20282;-74
2022/03/02 01:36:22;;;;;;;18.77;12.73;;;5.00;99.90;;;;;;4919365;29;20219;-73
2022/03/02 01:38:48;;;;;;;19.43;12.33;;;5.00;99.90;;;;;;4915777;29;20177;-74
2022/03/02 01:41:16;;;;;;;18.70;12.37;;;5.00;99.90;;;;;;4916039;29;20199;-74
2022/03/02 01:43:43;;;;;;;17.23;11.50;;;5.00;99.90;;;;;;4914576;29;20277;-73
2022/03/02 01:46:08;;;;;;;17.80;11.80;;;5.00;99.90;;;;;;4919289;29;20204;-73
2022/03/02 01:48:34;;;;;;;19.57;11.97;;;5.00;99.90;;;;;;4915812;29;20192;-72
2022/03/02 01:51:00;;;;;;;19.73;11.97;;;5.00;99.90;;;;;;4912968;29;20207;-73
2022/03/02 01:53:25;;;;;;;17.90;11.10;;;4.90;99.90;;;;;;4919323;29;20235;-74
2022/03/02 01:55:51;;;;;;;19.10;12.07;;;4.90;99.90;;;;;;4915413;29;20203;-74
2022/03/02 01:58:17;;;;;;;19.10;12.27;;;4.90;99.90;;;;;;4915840;29;20267;-74
2022/03/02 02:00:43;;;;;;;18.53;12.20;;;4.90;99.90;;;;;;4919083;29;20306;-74
2022/03/02 02:03:08;;;;;;;17.77;11.47;;;4.90;99.90;;;;;;4918662;29;20198;-73
2022/03/02 02:05:34;;;;;;;19.07;12.20;;;4.90;99.90;;;;;;4914992;29;20255;-75
2022/03/02 02:08:00;;;;;;;17.20;11.07;;;4.90;99.90;;;;;;4915027;29;20187;-74
2022/03/02 02:10:26;;;;;;;17.20;11.87;;;4.90;99.90;;;;;;4917780;29;20232;-74
2022/03/02 02:12:52;;;;;;;17.93;11.67;;;4.90;99.90;;;;;;4922627;29;20191;-75
2022/03/02 02:15:17;;;;;;;19.73;11.53;;;4.90;99.90;;;;;;4919800;29;20190;-74
2022/03/02 02:17:43;;;;;;;18.43;11.63;;;4.80;99.90;;;;;;4917405;29;20293;-73
2022/03/02 02:20:10;;;;;;;19.33;11.47;;;4.80;99.90;;;;;;4919593;29;20304;-75
2022/03/02 02:22:40;;;;;;;20.53;12.30;;;4.80;99.90;;;;;;4916789;29;20275;-74
2022/03/02 02:25:07;;;;;;;23.07;12.37;;;4.80;99.90;;;;;;4917497;29;20188;-73
2022/03/02 02:27:33;;;;;;;20.63;12.87;;;4.80;99.90;;;;;;4916193;29;20215;-73
2022/03/02 02:30:00;;;;;;;22.43;12.33;;;4.70;99.90;;;;;;4925034;29;20188;-73
2022/03/02 02:32:26;;;;;;;16.70;11.73;;;4.70;99.90;;;;;;4919925;29;20199;-74
2022/03/02 02:34:51;;;;;;;18.93;12.37;;;4.70;99.90;;;;;;4916691;29;20210;-73
2022/03/02 02:37:17;;;;;;;19.37;11.83;;;4.70;99.90;;;;;;4925630;29;20282;-74
2022/03/02 02:39:54;;;;;;;19.67;11.70;;;4.70;99.90;;;;;;4918912;29;20218;-75
2022/03/02 02:42:19;;;;;;;18.60;11.60;;;4.60;99.90;;;;;;4919315;29;20194;-74
2022/03/02 02:44:45;;;;;;;23.43;12.03;;;4.60;99.90;;;;;;4917647;29;20188;-74
2022/03/02 02:47:11;;;;;;;22.30;13.13;;;4.60;99.90;;;;;;4919425;29;20226;-74
2022/03/02 02:49:37;;;;;;;18.83;12.23;;;4.50;99.90;;;;;;4919825;29;20224;-75
2022/03/02 02:52:03;;;;;;;24.73;13.03;;;4.50;99.90;;;;;;4918482;29;20209;-74
2022/03/02 02:54:29;;;;;;;20.27;13.30;;;4.50;99.90;;;;;;4922798;29;20205;-73
2022/03/02 02:56:55;;;;;;;21.73;12.97;;;4.50;99.90;;;;;;4920014;29;20214;-72
2022/03/02 02:59:20;;;;;;;21.27;13.13;;;4.50;99.90;;;;;;4921604;29;20287;-73
2022/03/02 03:01:46;;;;;;;22.17;12.93;;;4.50;99.90;;;;;;4920718;29;20211;-73
2022/03/02 03:04:13;;;;;;;18.97;12.90;;;4.50;99.90;;;;;;4922395;29;20191;-74
2022/03/02 03:06:38;;;;;;;23.30;12.73;;;4.50;99.90;;;;;;4922151;29;20238;-72
2022/03/02 03:09:04;;;;;;;20.27;12.30;;;4.50;99.90;;;;;;4920044;29;20285;-73
2022/03/02 03:11:30;;;;;;;19.77;12.33;;;4.50;99.90;;;;;;4920132;29;20315;-74
2022/03/02 03:13:55;;;;;;;20.07;12.73;;;4.50;99.90;;;;;;4915835;29;20192;-73
2022/03/02 03:16:21;;;;;;;21.37;12.80;;;4.50;99.90;;;;;;4918568;29;20215;-74
2022/03/02 03:18:47;;;;;;;22.50;13.40;;;4.50;99.90;;;;;;4918106;29;20262;-72
2022/03/02 03:21:12;;;;;;;21.10;12.73;;;4.50;99.90;;;;;;4920588;29;20199;-73
2022/03/02 03:23:38;;;;;;;20.47;12.20;;;4.50;99.90;;;;;;4918896;29;20190;-73
2022/03/02 03:26:04;;;;;;;22.23;13.77;;;4.50;99.90;;;;;;4921384;29;20263;-72
2022/03/02 03:28:29;;;;;;;22.63;12.70;;;4.50;99.90;;;;;;4917186;29;20199;-73
2022/03/02 03:30:57;;;;;;;19.27;12.80;;;4.50;99.90;;;;;;4919507;29;20255;-73
2022/03/02 03:33:24;;;;;;;22.63;13.60;;;4.60;99.90;;;;;;4913931;29;20690;-73
2022/03/02 03:35:49;;;;;;;18.30;12.17;;;4.60;99.90;;;;;;4916960;29;20229;-74
2022/03/02 03:38:15;;;;;;;19.30;12.40;;;4.50;99.90;;;;;;4916563;29;20206;-72
2022/03/02 03:40:41;;;;;;;22.43;13.33;;;4.50;99.90;;;;;;4919440;29;20203;-72
2022/03/02 03:43:06;;;;;;;24.17;13.10;;;4.60;99.90;;;;;;4932835;29;20199;-73
2022/03/02 03:45:32;;;;;;;21.80;12.30;;;4.50;99.90;;;;;;4936833;29;20186;-74
2022/03/02 03:47:58;;;;;;;25.90;13.47;;;4.50;99.90;;;;;;4916297;29;20192;-73
2022/03/02 03:50:24;;;;;;;20.30;12.50;;;4.50;99.90;;;;;;4919921;29;20212;-74
2022/03/02 03:52:50;;;;;;;21.50;13.33;;;4.50;99.90;;;;;;4919456;29;20191;-72
2022/03/02 03:55:16;;;;;;;22.93;13.60;;;4.50;99.90;;;;;;4918779;29;20243;-72
2022/03/02 03:57:42;;;;;;;19.40;12.67;;;4.50;99.90;;;;;;4916823;29;20608;-73
2022/03/02 04:00:12;;;;;;;24.00;13.27;;;4.50;99.90;;;;;;4916059;29;20190;-72
2022/03/02 04:02:38;;;;;;;20.87;13.10;;;4.50;99.90;;;;;;4915091;29;20247;-73
2022/03/02 04:05:04;;;;;;;23.77;13.50;;;4.50;99.90;;;;;;4912261;29;20261;-72
2022/03/02 04:07:30;;;;;;;26.93;13.47;;;4.50;99.90;;;;;;4919761;29;20665;-72
2022/03/02 04:09:56;;;;;;;22.07;13.10;;;4.50;99.90;;;;;;4921502;29;20524;-72
2022/03/02 04:12:21;;;;;;;20.60;12.87;;;4.50;99.90;;;;;;4921904;29;20559;-72
2022/03/02 04:14:48;;;;;;;25.17;13.00;;;4.50;99.90;;;;;;4918977;29;20188;-74
2022/03/02 04:17:13;;;;;;;21.80;13.37;;;4.40;99.90;;;;;;4921452;29;20274;-73
2022/03/02 04:19:39;;;;;;;19.80;13.17;;;4.40;99.90;;;;;;4919914;29;20275;-73
2022/03/02 04:22:05;;;;;;;22.50;14.00;;;4.40;99.90;;;;;;4920929;29;20181;-72
2022/03/02 04:24:31;;;;;;;22.97;14.10;;;4.40;99.90;;;;;;4918902;29;20202;-73
2022/03/02 04:26:57;;;;;;;21.43;13.53;;;4.40;99.90;;;;;;4918166;29;20215;-72
2022/03/02 04:29:22;;;;;;;27.63;13.63;;;4.40;99.90;;;;;;4921125;29;20186;-73
2022/03/02 04:31:48;;;;;;;22.33;13.70;;;4.40;99.90;;;;;;4919756;29;20230;-73
2022/03/02 04:34:14;;;;;;;22.93;13.57;;;4.40;99.90;;;;;;4922400;29;20585;-72
2022/03/02 04:36:40;;;;;;;22.97;14.37;;;4.40;99.90;;;;;;4921048;29;20211;-72
2022/03/02 04:39:05;;;;;;;21.33;14.03;;;4.40;99.90;;;;;;4917109;29;20214;-72
2022/03/02 04:41:31;;;;;;;21.07;13.20;;;4.40;99.90;;;;;;4915318;29;20187;-73
2022/03/02 04:43:57;;;;;;;22.00;13.53;;;4.40;99.90;;;;;;4916227;29;20234;-72
2022/03/02 04:46:23;;;;;;;23.60;13.83;;;4.30;99.90;;;;;;4920166;29;20215;-72
2022/03/02 04:48:48;;;;;;;20.20;13.13;;;4.30;99.90;;;;;;4918056;29;20208;-73
2022/03/02 04:51:14;;;;;;;24.13;13.93;;;4.30;99.90;;;;;;4917393;29;20191;-74
2022/03/02 04:53:40;;;;;;;21.10;13.30;;;4.30;99.90;;;;;;4916855;29;20222;-73
2022/03/02 04:56:05;;;;;;;19.67;13.10;;;4.30;99.90;;;;;;4916056;29;20222;-73
2022/03/02 04:58:31;;;;;;;24.97;13.60;;;4.20;99.90;;;;;;4918651;29;20218;-74
2022/03/02 05:00:57;;;;;;;21.30;12.80;;;4.30;99.90;;;;;;4917044;29;20203;-74
2022/03/02 05:03:22;;;;;;;23.13;13.90;;;4.20;99.90;;;;;;4915215;29;20184;-72
2022/03/02 05:05:48;;;;;;;21.20;13.47;;;4.30;99.90;;;;;;4918675;29;20184;-75
2022/03/02 05:08:14;;;;;;;21.90;14.03;;;4.30;99.90;;;;;;4918169;29;20636;-74
2022/03/02 05:10:40;;;;;;;20.47;12.77;;;4.20;99.90;;;;;;4913149;29;20187;-72
2022/03/02 05:13:06;;;;;;;22.63;13.83;;;4.20;99.90;;;;;;4911018;29;20565;-73
2022/03/02 05:15:32;;;;;;;21.13;14.00;;;4.20;99.90;;;;;;4912802;29;20218;-72
2022/03/02 05:17:58;;;;;;;19.83;13.30;;;4.20;99.90;;;;;;4912802;29;20209;-74
2022/03/02 05:20:25;;;;;;;22.27;13.47;;;4.10;99.90;;;;;;4914171;29;20645;-74
2022/03/02 05:22:51;;;;;;;19.00;12.50;;;4.10;99.90;;;;;;4914484;29;20212;-74
2022/03/02 05:25:17;;;;;;;19.77;13.10;;;4.10;99.90;;;;;;4914072;29;20217;-74
2022/03/02 05:27:43;;;;;;;20.20;13.27;;;4.10;99.90;;;;;;4912495;29;20321;-73
2022/03/02 05:30:11;;;;;;;20.10;13.53;;;4.00;99.90;;;;;;4910301;29;20213;-73
2022/03/02 05:32:38;;;;;;;20.17;12.50;;;4.00;99.90;;;;;;4912956;29;20191;-74
2022/03/02 05:35:04;;;;;;;25.07;13.37;;;3.90;99.90;;;;;;4917190;29;20191;-73
2022/03/02 05:37:30;;;;;;;20.83;13.03;;;3.90;99.90;;;;;;4912482;29;20300;-73
2022/03/02 05:39:56;;;;;;;19.00;12.60;;;3.90;99.90;;;;;;4915374;29;20599;-74
2022/03/02 05:42:22;;;;;;;21.17;12.73;;;3.90;99.90;;;;;;4914352;29;20181;-74
2022/03/02 05:44:49;;;;;;;19.33;12.50;;;3.90;99.90;;;;;;4913680;29;20171;-73
2022/03/02 05:47:14;;;;;;;21.97;11.87;;;3.90;99.90;;;;;;4920158;29;20214;-73
2022/03/02 05:49:40;;;;;;;20.43;12.83;;;3.80;99.90;;;;;;4923826;29;20258;-73
2022/03/02 05:52:06;;;;;;;23.90;13.53;;;3.80;99.90;;;;;;4920476;29;20544;-73
2022/03/02 05:54:32;;;;;;;21.83;13.23;;;3.70;99.90;;;;;;4931448;29;20212;-73
2022/03/02 05:56:57;;;;;;;20.03;12.57;;;3.70;99.90;;;;;;4915559;29;20216;-73
2022/03/02 05:59:23;;;;;;;18.93;12.30;;;3.70;99.90;;;;;;4922168;29;20198;-73
2022/03/02 06:01:49;;;;;;;19.03;12.93;;;3.70;99.90;;;;;;4932919;29;20182;-73
2022/03/02 06:04:14;;;;;;;19.83;13.57;;;3.70;99.90;;;;;;4918444;29;20187;-73
2022/03/02 06:06:41;;;;;;;18.60;12.27;;;3.60;99.90;;;;;;4916361;29;20618;-75
2022/03/02 06:09:09;;;;;;;24.23;13.77;;;3.60;99.90;;;;;;4914650;29;20221;-73
2022/03/02 06:11:37;;;;;;;20.93;12.87;;;3.60;99.90;;;;;;4926732;29;20197;-73
2022/03/02 06:14:03;;;;;;;19.90;12.97;;;3.60;99.90;;;;;;4922000;29;20190;-74
2022/03/02 06:16:29;;;;;;;23.90;13.10;;;3.50;99.90;;;;;;4933035;29;20261;-73
2022/03/02 06:18:56;;;;;;;20.73;12.73;;;3.50;99.90;;;;;;4921227;29;20185;-73
2022/03/02 06:21:27;;;;;;;22.87;12.83;;;3.50;99.90;;;;;;4933586;29;20182;-72
2022/03/02 06:23:53;;;;;;;27.23;13.53;;;3.50;99.90;;;;;;4913732;29;20189;-73
2022/03/02 06:26:22;;;;;;;21.80;13.53;;;3.50;99.90;;;;;;4915657;29;20209;-72
2022/03/02 06:28:48;;;;;;;24.40;13.77;;;3.40;99.90;;;;;;4906685;29;20181;-72
2022/03/02 06:31:14;;;;;;;22.40;13.57;;;3.40;99.90;;;;;;4914499;29;20179;-73
2022/03/02 06:33:40;;;;;;;19.60;12.60;;;3.40;99.90;;;;;;4917095;29;20182;-73
2022/03/02 06:36:06;;;;;;;22.40;13.90;;;3.40;99.90;;;;;;4913880;29;20218;-72
2022/03/02 06:38:32;;;;;;;18.83;12.03;;;3.30;99.90;;;;;;4914572;29;20206;-72
2022/03/02 06:41:01;;;;;;;22.43;12.30;;;3.30;99.90;;;;;;4914290;29;20190;-74
2022/03/02 06:43:31;;;;;;;20.20;12.53;;;3.30;99.90;;;;;;4914574;29;20187;-73
2022/03/02 06:46:08;;;;;;;19.30;12.97;;;3.30;99.90;;;;;;4915456;29;20208;-74
2022/03/02 06:48:46;;;;;;;19.37;12.63;;;3.30;99.90;;;;;;4922290;29;20190;-73
2022/03/02 06:51:14;;;;;;;21.17;13.07;;;3.20;99.90;;;;;;4944657;29;20190;-72
2022/03/02 06:53:43;;;;;;;22.00;12.97;;;3.20;99.90;;;;;;4931564;29;20245;-72
2022/03/02 06:56:09;;;;;;;23.37;13.60;;;3.20;99.90;;;;;;4926071;29;20241;-74
2022/03/02 06:58:47;;;;;;;19.07;12.70;;;3.10;99.90;;;;;;4921937;29;20286;-72
2022/03/02 07:01:16;;;;;;;22.10;13.30;;;3.10;99.90;;;;;;4941797;28;20178;-72
2022/03/02 07:03:50;;;;;;;21.03;13.13;;;3.10;99.90;;;;;;4922609;29;20235;-75
2022/03/02 07:06:16;;;;;;;20.50;12.83;;;3.10;99.90;;;;;;4933167;29;20252;-72
2022/03/02 07:08:45;;;;;;;20.97;12.33;;;3.10;99.90;;;;;;4919079;29;20252;-73
2022/03/02 07:11:12;;;;;;;19.60;12.43;;;3.00;99.90;;;;;;4933324;29;20185;-72
2022/03/02 07:13:38;;;;;;;19.13;11.63;;;3.00;99.90;;;;;;4933309;29;20184;-72
2022/03/02 07:16:04;;;;;;;21.77;12.50;;;3.00;99.90;;;;;;4928336;29;20215;-73
2022/03/02 07:18:30;;;;;;;20.67;13.07;;;3.00;99.90;;;;;;4917732;29;20204;-73
2022/03/02 07:20:57;;;;;;;18.73;12.00;;;3.00;99.90;;;;;;4917017;29;20710;-73
2022/03/02 07:23:27;;;;;;;17.77;10.90;;;2.90;99.90;;;;;;4925463;29;20632;-73
2022/03/02 07:25:54;;;;;;;19.63;12.63;;;2.90;99.90;;;;;;4922382;29;20194;-73
2022/03/02 07:28:20;;;;;;;21.13;12.43;;;2.90;99.90;;;;;;4929206;29;20207;-71
2022/03/02 07:30:47;;;;;;;18.73;12.63;;;2.90;99.90;;;;;;4916990;29;20209;-72
2022/03/02 07:33:15;;;;;;;22.03;12.73;;;2.90;99.90;;;;;;4917205;29;20591;-72
2022/03/02 07:35:43;;;;;;;20.23;12.30;;;2.90;99.90;;;;;;4918388;29;20190;-75
2022/03/02 07:38:09;;;;;;;19.60;12.17;;;2.90;99.90;;;;;;4916535;29;20213;-72
2022/03/02 07:40:35;;;;;;;21.07;12.67;;;2.90;99.90;;;;;;4919634;29;20269;-72
2022/03/02 07:43:01;;;;;;;22.50;11.97;;;2.90;99.90;;;;;;4915013;29;20190;-74
2022/03/02 07:45:27;;;;;;;22.13;12.57;;;3.00;99.90;;;;;;4925358;29;20184;-71
2022/03/02 07:47:53;;;;;;;20.17;11.97;;;3.00;99.90;;;;;;4928109;29;20225;-74
2022/03/02 07:50:18;;;;;;;20.50;12.00;;;3.00;99.90;;;;;;4935447;29;20181;-72
2022/03/02 07:52:51;;;;;;;20.80;11.73;;;3.00;99.90;;;;;;4935325;29;20276;-71
2022/03/02 07:55:17;;;;;;;17.80;11.30;;;3.10;99.90;;;;;;4933216;29;20190;-73
2022/03/02 07:57:44;;;;;;;20.70;11.97;;;3.20;99.90;;;;;;4927640;29;20227;-73
2022/03/02 08:00:11;;;;;;;20.07;11.87;;;3.20;99.90;;;;;;4921581;29;20186;-73
2022/03/02 08:02:42;;;;;;;19.13;11.80;;;3.30;99.90;;;;;;4927100;29;20195;-73
2022/03/02 08:05:09;;;;;;;19.40;11.90;;;3.30;99.90;;;;;;4916626;29;20182;-73
2022/03/02 08:07:36;;;;;;;19.07;11.43;;;3.30;99.90;;;;;;4917035;29;20213;-74
2022/03/02 08:10:03;;;;;;;19.57;12.17;;;3.30;99.90;;;;;;4928647;29;20190;-74
2022/03/02 08:12:29;;;;;;;18.50;10.57;;;3.40;99.90;;;;;;4916507;29;20202;-73
2022/03/02 08:14:54;;;;;;;20.40;11.23;;;3.40;99.90;;;;;;4916281;29;20222;-73
2022/03/02 08:17:20;;;;;;;18.53;11.30;;;3.50;99.90;;;;;;4916055;29;20215;-78
2022/03/02 08:19:46;;;;;;;19.67;11.57;;;3.50;99.90;;;;;;4920957;29;20194;-72
2022/03/02 08:22:19;;;;;;;16.07;9.77;;;3.60;99.90;;;;;;4930495;29;20274;-73
2022/03/02 08:25:01;;;;;;;15.53;10.10;;;3.70;99.90;;;;;;4922816;29;20287;-73
2022/03/02 08:27:30;;;;;;;12.43;8.63;;;3.70;99.90;;;;;;4926410;29;20211;-75
2022/03/02 08:29:56;;;;;;;16.60;8.67;;;3.80;99.90;;;;;;4921137;29;20190;-73
2022/03/02 08:32:23;;;;;;;11.57;8.70;;;3.90;99.90;;;;;;4926691;29;20203;-73
2022/03/02 08:34:49;;;;;;;15.03;8.83;;;3.90;99.90;;;;;;4919050;29;20181;-71
2022/03/02 08:37:19;;;;;;;16.27;9.20;;;4.00;99.90;;;;;;4924842;29;20203;-70
2022/03/02 08:39:46;;;;;;;12.27;8.57;;;4.10;99.90;;;;;;4918562;29;20187;-71
2022/03/02 08:42:12;;;;;;;15.83;8.10;;;4.10;99.90;;;;;;4913414;29;20223;-71
2022/03/02 08:44:38;;;;;;;11.53;7.70;;;4.20;99.90;;;;;;4918853;29;20214;-72
2022/03/02 08:47:05;;;;;;;12.27;8.03;;;4.30;99.90;;;;;;4927388;29;20208;-70
2022/03/02 08:49:31;;;;;;;12.30;7.67;;;4.30;99.90;;;;;;4911482;29;20188;-72
2022/03/02 08:51:58;;;;;;;12.07;8.23;;;4.30;99.90;;;;;;4916123;29;20191;-71
2022/03/02 08:54:27;;;;;;;12.83;8.07;;;4.50;99.90;;;;;;4916866;29;20277;-71
2022/03/02 08:56:53;;;;;;;12.10;7.90;;;4.50;99.90;;;;;;4918933;29;20211;-70
2022/03/02 08:59:20;;;;;;;12.70;8.03;;;4.60;99.90;;;;;;4934375;28;20199;-71
2022/03/02 09:01:53;;;;;;;13.67;7.43;;;4.70;99.90;;;;;;4920997;29;20667;-70
2022/03/02 09:04:22;;;;;;;13.03;7.73;;;4.80;99.90;;;;;;4917171;29;20179;-71
2022/03/02 09:06:48;;;;;;;12.30;7.43;;;4.80;99.90;;;;;;4915400;29;20210;-72
2022/03/02 09:09:14;;;;;;;12.47;7.57;;;4.90;99.90;;;;;;4916328;29;20254;-71
2022/03/02 09:11:41;;;;;;;12.97;7.60;;;4.90;99.90;;;;;;4918284;29;20196;-71
2022/03/02 09:14:07;;;;;;;11.67;8.17;;;5.10;99.90;;;;;;4916614;29;20188;-71
2022/03/02 09:16:32;;;;;;;12.43;8.00;;;5.10;99.90;;;;;;4915020;29;20211;-71
2022/03/02 09:18:58;;;;;;;12.17;7.43;;;5.20;99.90;;;;;;4917410;29;20191;-71
2022/03/02 09:21:25;;;;;;;11.80;7.27;;;5.20;99.90;;;;;;4920609;29;20214;-70
2022/03/02 09:23:54;;;;;;;12.37;7.27;;;5.30;99.90;;;;;;4918024;29;20200;-71
2022/03/02 09:26:20;;;;;;;12.47;7.10;;;5.40;99.90;;;;;;4918871;29;20207;-72
2022/03/02 09:28:48;;;;;;;11.33;7.23;;;5.40;99.90;;;;;;4915276;29;20306;-71
2022/03/02 09:31:16;;;;;;;10.37;7.17;;;5.50;99.90;;;;;;4917390;29;20244;-71
2022/03/02 09:33:53;;;;;;;13.47;6.67;;;5.50;99.90;;;;;;4918621;29;20747;-72
2022/03/02 09:36:22;;;;;;;12.30;7.70;;;5.60;99.90;;;;;;4910941;29;20211;-70
2022/03/02 09:38:49;;;;;;;10.03;6.73;;;5.70;99.90;;;;;;4919311;29;20577;-71
2022/03/02 09:41:39;;;;;;;11.13;6.60;;;5.80;99.90;;;;;;4917850;29;20211;-71
2022/03/02 09:44:06;;;;;;;10.23;6.33;;;5.80;99.90;;;;;;4917514;29;20263;-70
2022/03/02 09:46:35;;;;;;;12.30;7.13;;;5.80;99.90;;;;;;4919643;29;20304;-70
2022/03/02 09:49:10;;;;;;;11.27;6.70;;;5.80;99.90;;;;;;4915485;29;20184;-70
2022/03/02 09:51:39;;;;;;;10.90;6.70;;;6.00;99.90;;;;;;4913456;29;20184;-71
2022/03/02 09:54:05;;;;;;;10.43;6.73;;;6.10;99.90;;;;;;4914873;29;20195;-70
2022/03/02 09:56:32;;;;;;;9.67;6.53;;;6.10;99.90;;;;;;4917857;29;20629;-71
2022/03/02 09:59:00;;;;;;;9.80;6.40;;;6.20;99.90;;;;;;4917520;29;20204;-70
2022/03/02 10:01:28;;;;;;;11.97;6.57;;;6.30;99.90;;;;;;4918442;29;20184;-71
2022/03/02 10:03:54;;;;;;;11.37;6.60;;;6.30;99.90;;;;;;4912793;29;20238;-71
2022/03/02 10:06:21;;;;;;;8.83;6.10;;;6.30;99.90;;;;;;4914680;29;20219;-72
2022/03/02 10:08:52;;;;;;;10.13;6.73;;;6.40;99.90;;;;;;4919101;29;20196;-70
2022/03/02 10:11:26;;;;;;;10.17;6.83;;;6.40;99.90;;;;;;4921172;29;20196;-70
2022/03/02 10:13:56;;;;;;;11.47;7.30;;;6.50;99.90;;;;;;4920352;29;20183;-73
2022/03/02 10:16:25;;;;;;;8.97;5.90;;;6.50;99.90;;;;;;4919689;29;20215;-71
2022/03/02 10:19:02;;;;;;;11.37;6.67;;;6.50;99.90;;;;;;4913157;29;20216;-71
2022/03/02 10:21:33;;;;;;;12.77;7.00;;;6.50;99.90;;;;;;4921866;29;20195;-72
2022/03/02 10:24:03;;;;;;;12.17;7.37;;;6.50;99.90;;;;;;4916482;29;20679;-71
2022/03/02 10:26:34;;;;;;;10.30;6.70;;;6.60;99.90;;;;;;4920263;29;20365;-70
2022/03/02 10:29:16;;;;;;;12.17;7.37;;;6.70;99.90;;;;;;4914934;29;20191;-70
2022/03/02 10:32:05;;;;;;;11.33;7.13;;;6.80;99.90;;;;;;4932438;29;20212;-71
2022/03/02 10:34:31;;;;;;;12.97;7.07;;;6.80;99.90;;;;;;4918811;29;20195;-72
2022/03/02 10:37:34;;;;;;;10.97;7.03;;;6.80;99.90;;;;;;4916743;29;20212;-70
2022/03/02 10:40:18;;;;;;;10.87;7.00;;;6.90;99.90;;;;;;4917893;29;20180;-70
2022/03/02 10:42:57;;;;;;;10.63;7.20;;;6.90;99.90;;;;;;4933937;29;20243;-71
2022/03/02 10:45:42;;;;;;;10.10;6.33;;;6.90;99.90;;;;;;4921727;29;20244;-71
2022/03/02 10:48:41;;;;;;;11.60;6.40;;;6.90;99.90;;;;;;4922144;29;20191;-71
2022/03/02 10:51:09;;;;;;;9.90;6.13;;;7.00;99.90;;;;;;4936492;29;20232;-71
2022/03/02 10:53:40;;;;;;;9.97;6.40;;;7.00;99.90;;;;;;4923789;29;20194;-72
2022/03/02 10:56:08;;;;;;;11.33;6.57;;;7.00;99.90;;;;;;4919613;29;20289;-71
2022/03/02 10:58:35;;;;;;;12.17;7.10;;;7.00;99.90;;;;;;4920234;29;20624;-72
2022/03/02 11:01:01;;;;;;;9.93;6.23;;;7.10;99.90;;;;;;4923933;29;20263;-71
2022/03/02 11:03:28;;;;;;;9.50;6.33;;;7.10;99.90;;;;;;4919323;29;20279;-71
2022/03/02 11:05:59;;;;;;;8.73;6.50;;;7.20;99.90;;;;;;4919568;29;20184;-71
2022/03/02 11:08:25;;;;;;;9.77;6.37;;;7.20;99.90;;;;;;4923365;29;20279;-71
2022/03/02 11:10:51;;;;;;;9.47;6.53;;;7.10;99.90;;;;;;4919310;29;20263;-71
2022/03/02 11:13:17;;;;;;;10.30;6.73;;;7.20;99.90;;;;;;4918136;29;20185;-70
2022/03/02 11:16:00;;;;;;;11.10;7.23;;;7.20;99.90;;;;;;4918090;29;20191;-72
2022/03/02 11:18:33;;;;;;;9.67;6.83;;;7.40;99.90;;;;;;4922645;29;20211;-72
2022/03/02 11:21:03;;;;;;;11.07;6.90;;;7.40;99.90;;;;;;4934667;29;20626;-72
2022/03/02 11:23:50;;;;;;;12.80;6.60;;;7.40;99.90;;;;;;4923102;29;20184;-72
2022/03/02 11:26:26;;;;;;;8.70;6.60;;;7.40;99.90;;;;;;4934642;29;20214;-72
2022/03/02 11:29:01;;;;;;;11.40;7.07;;;7.40;99.90;;;;;;4916984;29;20182;-73
2022/03/02 11:31:38;;;;;;;10.27;6.87;;;7.50;99.90;;;;;;4919077;29;20184;-71
2022/03/02 11:34:23;;;;;;;11.10;6.93;;;7.50;99.90;;;;;;4922667;29;20179;-71
2022/03/02 11:36:53;;;;;;;12.07;6.30;;;7.50;99.90;;;;;;4919778;29;20235;-71
2022/03/02 11:39:22;;;;;;;9.90;6.90;;;7.50;99.90;;;;;;4918988;29;20192;-70
2022/03/02 11:41:51;;;;;;;9.80;6.57;;;7.60;99.90;;;;;;4918434;29;20207;-73
2022/03/02 11:44:39;;;;;;;10.33;6.30;;;7.60;99.90;;;;;;4919086;29;20593;-72
2022/03/02 11:47:06;;;;;;;12.37;7.20;;;7.70;99.90;;;;;;4918636;29;20618;-71
2022/03/02 11:49:52;;;;;;;11.63;7.80;;;7.70;99.90;;;;;;4917887;29;20660;-71
2022/03/02 11:52:30;;;;;;;10.97;7.20;;;7.80;99.90;;;;;;4922340;29;20220;-71
2022/03/02 11:55:05;;;;;;;11.70;7.30;;;7.80;99.90;;;;;;4918544;29;20310;-71
2022/03/02 11:57:39;;;;;;;10.43;7.47;;;7.90;99.90;;;;;;4917879;29;20198;-71
2022/03/02 12:00:22;;;;;;;11.33;7.80;;;8.00;99.90;;;;;;4920472;29;20202;-71
2022/03/02 12:02:54;;;;;;;11.13;7.33;;;8.00;99.90;;;;;;4920874;29;20184;-71
2022/03/02 12:05:33;;;;;;;13.43;7.80;;;8.10;99.90;;;;;;4917935;29;20207;-71
2022/03/02 12:08:05;;;;;;;12.80;8.30;;;8.10;99.90;;;;;;4916940;29;20287;-72
2022/03/02 12:10:37;;;;;;;11.27;7.60;;;8.20;99.90;;;;;;4919921;29;20265;-72
2022/03/02 12:13:04;;;;;;;12.90;8.73;;;8.20;99.90;;;;;;4918742;29;20607;-71
2022/03/02 12:15:51;;;;;;;15.23;8.07;;;8.20;99.90;;;;;;4918892;29;20263;-72
2022/03/02 12:18:18;;;;;;;13.17;8.10;;;8.20;99.90;;;;;;4935789;29;20211;-71
2022/03/02 12:20:52;;;;;;;14.20;8.10;;;8.20;99.90;;;;;;4917764;29;20660;-71
2022/03/02 12:23:24;;;;;;;13.27;7.93;;;8.30;99.90;;;;;;4938398;28;20188;-71
2022/03/02 12:25:50;;;;;;;13.53;7.90;;;8.30;99.90;;;;;;4918212;29;20204;-72
2022/03/02 12:28:17;;;;;;;14.20;8.53;;;8.30;99.90;;;;;;4917159;29;20188;-71
2022/03/02 12:30:43;;;;;;;13.70;8.57;;;8.40;99.90;;;;;;4916784;29;20206;-71
2022/03/02 12:33:09;;;;;;;14.30;8.33;;;8.40;99.90;;;;;;4917695;29;20175;-72
2022/03/02 12:35:36;;;;;;;12.43;8.80;;;8.30;99.90;;;;;;4918830;29;20180;-70
2022/03/02 12:38:05;;;;;;;13.37;9.13;;;8.30;99.90;;;;;;4916818;29;20261;-71
2022/03/02 12:40:39;;;;;;;10.40;7.73;;;8.40;99.90;;;;;;4920341;29;20188;-73
2022/03/02 12:43:09;;;;;;;14.13;9.10;;;8.40;99.90;;;;;;4918594;29;20199;-72
2022/03/02 12:45:43;;;;;;;13.43;8.40;;;8.40;99.90;;;;;;4917484;29;20177;-72